Terminal Aerodrome Forecast
Issued by NWS

Home | Current Version | Previous Version | Text Only | Print | Product List | Glossary On
Versions: 1 2 3 4 5 6 7 8 9 10 11 12 13 14 15 16
000
FTUS42 TJSJ 200000 AAA
TAFKPK
TAF AMD
TKPK 200027Z 2000/2024 08008KT P6SM VCSH FEW025
      TEMPO 2000/2002 VRB10KT 5SM -TSRA SCT020CB
      AMD NOT SKED 2002/2011=

USA.gov is the U.S. government's official web portal to all federal, state and local government web resources and services.